sensor_id;sensor_type;location;lat;lon;timestamp;temperature;humidity
70867;HTU21D;58487;53.474;49.470;2022-11-20T00:01:09;0.19;90.54
70867;HTU21D;58487;53.474;49.470;2022-11-20T00:03:35;0.19;90.36
70867;HTU21D;58487;53.474;49.470;2022-11-20T00:06:03;0.14;90.07
70867;HTU21D;58487;53.474;49.470;2022-11-20T00:08:38;0.15;90.05
70867;HTU21D;58487;53.474;49.470;2022-11-20T00:11:06;0.18;90.10
70867;HTU21D;58487;53.474;49.470;2022-11-20T00:13:35;0.18;89.86
70867;HTU21D;58487;53.474;49.470;2022-11-20T00:16:06;0.16;89.73
70867;HTU21D;58487;53.474;49.470;2022-11-20T00:18:41;0.16;89.77
70867;HTU21D;58487;53.474;49.470;2022-11-20T00:21:16;0.12;89.90
70867;HTU21D;58487;53.474;49.470;2022-11-20T00:26:57;0.15;89.90
70867;HTU21D;58487;53.474;49.470;2022-11-20T00:29:26;0.12;89.99
70867;HTU21D;58487;53.474;49.470;2022-11-20T00:31:59;0.08;89.56
70867;HTU21D;58487;53.474;49.470;2022-11-20T00:34:28;0.07;89.89
70867;HTU21D;58487;53.474;49.470;2022-11-20T00:37:06;0.08;89.53
70867;HTU21D;58487;53.474;49.470;2022-11-20T00:39:31;0.12;89.10
70867;HTU21D;58487;53.474;49.470;2022-11-20T00:42:00;0.13;89.28
70867;HTU21D;58487;53.474;49.470;2022-11-20T00:44:26;0.12;89.27
70867;HTU21D;58487;53.474;49.470;2022-11-20T00:46:52;0.09;89.25
70867;HTU21D;58487;53.474;49.470;2022-11-20T00:49:21;0.09;89.26
70867;HTU21D;58487;53.474;49.470;2022-11-20T00:51:47;0.14;89.73
70867;HTU21D;58487;53.474;49.470;2022-11-20T00:54:13;0.17;89.20
70867;HTU21D;58487;53.474;49.470;2022-11-20T00:56:39;0.15;89.12
70867;HTU21D;58487;53.474;49.470;2022-11-20T00:59:11;0.05;89.41
70867;HTU21D;58487;53.474;49.470;2022-11-20T01:01:37;0.13;89.22
70867;HTU21D;58487;53.474;49.470;2022-11-20T01:04:04;0.22;88.89
70867;HTU21D;58487;53.474;49.470;2022-11-20T01:06:36;0.29;88.88
70867;HTU21D;58487;53.474;49.470;2022-11-20T01:09:12;0.19;88.84
70867;HTU21D;58487;53.474;49.470;2022-11-20T01:11:43;0.20;88.86
70867;HTU21D;58487;53.474;49.470;2022-11-20T01:14:20;0.12;89.54
70867;HTU21D;58487;53.474;49.470;2022-11-20T01:16:48;0.12;89.58
70867;HTU21D;58487;53.474;49.470;2022-11-20T01:19:22;0.07;89.59
70867;HTU21D;58487;53.474;49.470;2022-11-20T01:21:53;0.12;89.67
70867;HTU21D;58487;53.474;49.470;2022-11-20T01:24:20;0.07;89.27
70867;HTU21D;58487;53.474;49.470;2022-11-20T01:26:48;0.03;89.40
70867;HTU21D;58487;53.474;49.470;2022-11-20T01:29:18;-0.05;89.59
70867;HTU21D;58487;53.474;49.470;2022-11-20T01:31:44;-0.02;89.70
70867;HTU21D;58487;53.474;49.470;2022-11-20T01:34:17;-0.03;89.52
70867;HTU21D;58487;53.474;49.470;2022-11-20T01:36:44;-0.09;89.66
70867;HTU21D;58487;53.474;49.470;2022-11-20T01:39:26;-0.07;89.57
70867;HTU21D;58487;53.474;49.470;2022-11-20T01:41:53;-0.12;89.60
70867;HTU21D;58487;53.474;49.470;2022-11-20T01:44:57;-0.16;89.54
70867;HTU21D;58487;53.474;49.470;2022-11-20T01:47:34;-0.19;89.60
70867;HTU21D;58487;53.474;49.470;2022-11-20T01:50:33;-0.19;89.95
70867;HTU21D;58487;53.474;49.470;2022-11-20T01:53:05;-0.22;90.00
70867;HTU21D;58487;53.474;49.470;2022-11-20T01:55:43;-0.15;89.77
70867;HTU21D;58487;53.474;49.470;2022-11-20T01:58:11;-0.17;89.81
70867;HTU21D;58487;53.474;49.470;2022-11-20T02:00:41;-0.20;90.06
70867;HTU21D;58487;53.474;49.470;2022-11-20T02:03:09;-0.19;90.15
70867;HTU21D;58487;53.474;49.470;2022-11-20T02:08:21;-0.21;90.13
70867;HTU21D;58487;53.474;49.470;2022-11-20T02:10:48;-0.11;89.76
70867;HTU21D;58487;53.474;49.470;2022-11-20T02:13:18;-0.05;89.70
70867;HTU21D;58487;53.474;49.470;2022-11-20T02:16:03;-0.05;89.27
70867;HTU21D;58487;53.474;49.470;2022-11-20T02:18:35;-0.06;89.19
70867;HTU21D;58487;53.474;49.470;2022-11-20T02:24:14;-0.01;89.25
70867;HTU21D;58487;53.474;49.470;2022-11-20T02:26:59;-0.01;89.29
70867;HTU21D;58487;53.474;49.470;2022-11-20T02:29:47;0.03;89.08
70867;HTU21D;58487;53.474;49.470;2022-11-20T02:32:31;-0.01;89.36
70867;HTU21D;58487;53.474;49.470;2022-11-20T02:34:57;0.02;89.23
70867;HTU21D;58487;53.474;49.470;2022-11-20T02:37:30;0.05;88.66
70867;HTU21D;58487;53.474;49.470;2022-11-20T02:39:58;0.03;88.90
70867;HTU21D;58487;53.474;49.470;2022-11-20T02:42:24;-0.00;88.84
70867;HTU21D;58487;53.474;49.470;2022-11-20T02:44:50;-0.00;88.97
70867;HTU21D;58487;53.474;49.470;2022-11-20T02:47:16;-0.02;89.33
70867;HTU21D;58487;53.474;49.470;2022-11-20T02:49:42;-0.06;89.47
70867;HTU21D;58487;53.474;49.470;2022-11-20T02:52:08;-0.02;89.64
70867;HTU21D;58487;53.474;49.470;2022-11-20T02:54:34;-0.02;89.34
70867;HTU21D;58487;53.474;49.470;2022-11-20T02:57:00;0.02;89.60
70867;HTU21D;58487;53.474;49.470;2022-11-20T02:59:26;-0.01;89.82
70867;HTU21D;58487;53.474;49.470;2022-11-20T03:01:52;0.07;89.80
70867;HTU21D;58487;53.474;49.470;2022-11-20T03:04:18;-0.00;89.65
70867;HTU21D;58487;53.474;49.470;2022-11-20T03:06:44;-0.03;90.41
70867;HTU21D;58487;53.474;49.470;2022-11-20T03:09:10;-0.06;90.33
70867;HTU21D;58487;53.474;49.470;2022-11-20T03:11:39;-0.09;90.37
70867;HTU21D;58487;53.474;49.470;2022-11-20T03:14:05;-0.07;89.95
70867;HTU21D;58487;53.474;49.470;2022-11-20T03:16:32;-0.11;90.28
70867;HTU21D;58487;53.474;49.470;2022-11-20T03:18:59;-0.07;90.24
70867;HTU21D;58487;53.474;49.470;2022-11-20T03:21:25;-0.06;90.06
70867;HTU21D;58487;53.474;49.470;2022-11-20T03:23:54;-0.01;90.12
70867;HTU21D;58487;53.474;49.470;2022-11-20T03:26:24;0.04;89.79
70867;HTU21D;58487;53.474;49.470;2022-11-20T03:28:52;0.15;89.57
70867;HTU21D;58487;53.474;49.470;2022-11-20T03:31:26;0.14;89.54
70867;HTU21D;58487;53.474;49.470;2022-11-20T03:33:56;0.16;89.74
70867;HTU21D;58487;53.474;49.470;2022-11-20T03:36:22;0.17;89.71
70867;HTU21D;58487;53.474;49.470;2022-11-20T03:38:49;0.12;89.95
70867;HTU21D;58487;53.474;49.470;2022-11-20T03:41:20;0.16;90.16
70867;HTU21D;58487;53.474;49.470;2022-11-20T03:43:52;0.21;90.08
70867;HTU21D;58487;53.474;49.470;2022-11-20T03:46:20;0.17;90.30
70867;HTU21D;58487;53.474;49.470;2022-11-20T03:48:46;0.18;90.60
70867;HTU21D;58487;53.474;49.470;2022-11-20T03:51:24;0.16;90.57
70867;HTU21D;58487;53.474;49.470;2022-11-20T03:53:52;0.21;90.60
70867;HTU21D;58487;53.474;49.470;2022-11-20T03:56:26;0.20;90.69
70867;HTU21D;58487;53.474;49.470;2022-11-20T03:58:53;0.18;90.47
70867;HTU21D;58487;53.474;49.470;2022-11-20T04:01:21;0.17;90.66
70867;HTU21D;58487;53.474;49.470;2022-11-20T04:03:48;0.22;90.74
70867;HTU21D;58487;53.474;49.470;2022-11-20T04:06:17;0.20;90.44
70867;HTU21D;58487;53.474;49.470;2022-11-20T04:08:43;0.10;90.83
70867;HTU21D;58487;53.474;49.470;2022-11-20T04:13:47;0.13;90.53
70867;HTU21D;58487;53.474;49.470;2022-11-20T04:16:13;0.10;90.58
70867;HTU21D;58487;53.474;49.470;2022-11-20T04:18:39;0.09;90.43
70867;HTU21D;58487;53.474;49.470;2022-11-20T04:21:06;0.14;90.44
70867;HTU21D;58487;53.474;49.470;2022-11-20T04:23:32;0.03;90.36
70867;HTU21D;58487;53.474;49.470;2022-11-20T04:26:04;0.02;90.51
70867;HTU21D;58487;53.474;49.470;2022-11-20T04:28:30;0.01;90.66
70867;HTU21D;58487;53.474;49.470;2022-11-20T04:31:12;0.01;90.47
70867;HTU21D;58487;53.474;49.470;2022-11-20T04:33:39;0.04;90.44
70867;HTU21D;58487;53.474;49.470;2022-11-20T04:36:09;0.10;89.89
70867;HTU21D;58487;53.474;49.470;2022-11-20T04:38:39;0.10;89.98
70867;HTU21D;58487;53.474;49.470;2022-11-20T04:41:07;0.12;89.92
70867;HTU21D;58487;53.474;49.470;2022-11-20T04:43:39;0.14;89.67
70867;HTU21D;58487;53.474;49.470;2022-11-20T04:46:05;0.07;89.74
70867;HTU21D;58487;53.474;49.470;2022-11-20T04:48:31;0.04;89.92
70867;HTU21D;58487;53.474;49.470;2022-11-20T04:50:57;0.05;90.12
70867;HTU21D;58487;53.474;49.470;2022-11-20T04:53:28;0.06;89.92
70867;HTU21D;58487;53.474;49.470;2022-11-20T04:56:00;0.04;89.99
70867;HTU21D;58487;53.474;49.470;2022-11-20T04:58:26;0.06;90.00
70867;HTU21D;58487;53.474;49.470;2022-11-20T05:00:52;0.06;90.15
70867;HTU21D;58487;53.474;49.470;2022-11-20T05:03:18;0.06;90.08
70867;HTU21D;58487;53.474;49.470;2022-11-20T05:05:44;0.09;90.00
70867;HTU21D;58487;53.474;49.470;2022-11-20T05:08:10;0.12;90.14
70867;HTU21D;58487;53.474;49.470;2022-11-20T05:10:36;0.13;89.95
70867;HTU21D;58487;53.474;49.470;2022-11-20T05:13:03;0.16;89.93
70867;HTU21D;58487;53.474;49.470;2022-11-20T05:15:29;0.19;89.83
70867;HTU21D;58487;53.474;49.470;2022-11-20T05:18:01;0.19;89.85
70867;HTU21D;58487;53.474;49.470;2022-11-20T05:20:27;0.23;89.74
70867;HTU21D;58487;53.474;49.470;2022-11-20T05:22:57;0.20;89.99
70867;HTU21D;58487;53.474;49.470;2022-11-20T05:25:23;0.20;89.84
70867;HTU21D;58487;53.474;49.470;2022-11-20T05:27:49;0.21;89.54
70867;HTU21D;58487;53.474;49.470;2022-11-20T05:30:15;0.23;89.54
70867;HTU21D;58487;53.474;49.470;2022-11-20T05:32:41;0.21;89.89
70867;HTU21D;58487;53.474;49.470;2022-11-20T05:35:07;0.22;89.66
70867;HTU21D;58487;53.474;49.470;2022-11-20T05:37:33;0.23;89.38
70867;HTU21D;58487;53.474;49.470;2022-11-20T05:40:02;0.20;89.71
70867;HTU21D;58487;53.474;49.470;2022-11-20T05:42:30;0.24;89.44
70867;HTU21D;58487;53.474;49.470;2022-11-20T05:44:58;0.22;89.64
70867;HTU21D;58487;53.474;49.470;2022-11-20T05:47:24;0.25;89.79
70867;HTU21D;58487;53.474;49.470;2022-11-20T05:49:50;0.24;89.58
70867;HTU21D;58487;53.474;49.470;2022-11-20T05:52:16;0.30;89.47
70867;HTU21D;58487;53.474;49.470;2022-11-20T05:54:42;0.38;89.30
70867;HTU21D;58487;53.474;49.470;2022-11-20T05:57:08;0.42;89.44
70867;HTU21D;58487;53.474;49.470;2022-11-20T05:59:37;0.46;89.15
70867;HTU21D;58487;53.474;49.470;2022-11-20T06:02:03;0.47;89.22
70867;HTU21D;58487;53.474;49.470;2022-11-20T06:04:29;0.48;89.31
70867;HTU21D;58487;53.474;49.470;2022-11-20T06:06:55;0.43;89.97
70867;HTU21D;58487;53.474;49.470;2022-11-20T06:09:21;0.39;90.19
70867;HTU21D;58487;53.474;49.470;2022-11-20T06:11:47;0.38;90.76
70867;HTU21D;58487;53.474;49.470;2022-11-20T06:14:16;0.46;90.47
70867;HTU21D;58487;53.474;49.470;2022-11-20T06:16:43;0.48;90.09
70867;HTU21D;58487;53.474;49.470;2022-11-20T06:19:09;0.58;89.93
70867;HTU21D;58487;53.474;49.470;2022-11-20T06:21:38;0.65;89.18
70867;HTU21D;58487;53.474;49.470;2022-11-20T06:24:06;0.64;89.16
70867;HTU21D;58487;53.474;49.470;2022-11-20T06:26:32;0.59;89.44
70867;HTU21D;58487;53.474;49.470;2022-11-20T06:29:01;0.54;89.81
70867;HTU21D;58487;53.474;49.470;2022-11-20T06:31:30;0.57;89.79
70867;HTU21D;58487;53.474;49.470;2022-11-20T06:34:01;0.53;90.22
70867;HTU21D;58487;53.474;49.470;2022-11-20T06:36:27;0.59;89.80
70867;HTU21D;58487;53.474;49.470;2022-11-20T06:38:53;0.55;89.96
70867;HTU21D;58487;53.474;49.470;2022-11-20T06:41:21;0.58;90.18
70867;HTU21D;58487;53.474;49.470;2022-11-20T06:43:47;0.62;91.21
70867;HTU21D;58487;53.474;49.470;2022-11-20T06:46:15;0.72;91.53
70867;HTU21D;58487;53.474;49.470;2022-11-20T06:48:43;0.76;90.56
70867;HTU21D;58487;53.474;49.470;2022-11-20T06:51:13;0.69;90.54
70867;HTU21D;58487;53.474;49.470;2022-11-20T06:53:39;0.66;90.82
70867;HTU21D;58487;53.474;49.470;2022-11-20T06:56:06;0.66;91.14
70867;HTU21D;58487;53.474;49.470;2022-11-20T06:58:33;0.66;91.18
70867;HTU21D;58487;53.474;49.470;2022-11-20T07:01:04;0.73;90.89
70867;HTU21D;58487;53.474;49.470;2022-11-20T07:03:31;0.71;90.77
70867;HTU21D;58487;53.474;49.470;2022-11-20T07:05:58;0.71;91.21
70867;HTU21D;58487;53.474;49.470;2022-11-20T07:08:25;0.72;91.27
70867;HTU21D;58487;53.474;49.470;2022-11-20T07:10:51;0.73;91.21
70867;HTU21D;58487;53.474;49.470;2022-11-20T07:13:18;0.76;91.18
70867;HTU21D;58487;53.474;49.470;2022-11-20T07:15:44;0.69;90.95
70867;HTU21D;58487;53.474;49.470;2022-11-20T07:18:10;0.66;91.05
70867;HTU21D;58487;53.474;49.470;2022-11-20T07:20:36;0.64;91.39
70867;HTU21D;58487;53.474;49.470;2022-11-20T07:23:02;0.69;91.19
70867;HTU21D;58487;53.474;49.470;2022-11-20T07:25:28;0.64;91.19
70867;HTU21D;58487;53.474;49.470;2022-11-20T07:27:59;0.64;91.25
70867;HTU21D;58487;53.474;49.470;2022-11-20T07:30:26;0.54;91.82
70867;HTU21D;58487;53.474;49.470;2022-11-20T07:32:53;0.55;92.40
70867;HTU21D;58487;53.474;49.470;2022-11-20T07:35:20;0.59;92.03
70867;HTU21D;58487;53.474;49.470;2022-11-20T07:37:46;0.52;92.24
70867;HTU21D;58487;53.474;49.470;2022-11-20T07:40:13;0.52;92.30
70867;HTU21D;58487;53.474;49.470;2022-11-20T07:42:46;0.54;92.09
70867;HTU21D;58487;53.474;49.470;2022-11-20T07:45:12;0.57;92.32
70867;HTU21D;58487;53.474;49.470;2022-11-20T07:47:38;0.58;92.49
70867;HTU21D;58487;53.474;49.470;2022-11-20T07:50:05;0.55;92.73
70867;HTU21D;58487;53.474;49.470;2022-11-20T07:52:31;0.57;92.79
70867;HTU21D;58487;53.474;49.470;2022-11-20T07:54:57;0.62;92.56
70867;HTU21D;58487;53.474;49.470;2022-11-20T07:57:23;0.67;92.36
70867;HTU21D;58487;53.474;49.470;2022-11-20T07:59:49;0.77;91.98
70867;HTU21D;58487;53.474;49.470;2022-11-20T08:02:15;0.76;91.86
70867;HTU21D;58487;53.474;49.470;2022-11-20T08:04:41;0.86;91.44
70867;HTU21D;58487;53.474;49.470;2022-11-20T08:07:07;0.90;91.19
70867;HTU21D;58487;53.474;49.470;2022-11-20T08:09:33;1.03;90.57
70867;HTU21D;58487;53.474;49.470;2022-11-20T08:11:59;1.03;90.52
70867;HTU21D;58487;53.474;49.470;2022-11-20T08:14:43;0.99;90.00
70867;HTU21D;58487;53.474;49.470;2022-11-20T08:17:09;1.11;89.60
70867;HTU21D;58487;53.474;49.470;2022-11-20T08:19:35;1.19;89.79
70867;HTU21D;58487;53.474;49.470;2022-11-20T08:22:02;1.19;89.85
70867;HTU21D;58487;53.474;49.470;2022-11-20T08:24:28;1.26;89.71
70867;HTU21D;58487;53.474;49.470;2022-11-20T08:26:56;1.24;90.02
70867;HTU21D;58487;53.474;49.470;2022-11-20T08:29:22;1.18;90.04
70867;HTU21D;58487;53.474;49.470;2022-11-20T08:31:48;1.25;89.92
70867;HTU21D;58487;53.474;49.470;2022-11-20T08:34:15;1.41;89.69
70867;HTU21D;58487;53.474;49.470;2022-11-20T08:36:41;1.40;89.54
70867;HTU21D;58487;53.474;49.470;2022-11-20T08:39:06;1.34;89.55
70867;HTU21D;58487;53.474;49.470;2022-11-20T08:41:32;1.32;89.75
70867;HTU21D;58487;53.474;49.470;2022-11-20T08:44:00;1.33;89.87
70867;HTU21D;58487;53.474;49.470;2022-11-20T08:46:31;1.28;90.00
70867;HTU21D;58487;53.474;49.470;2022-11-20T08:48:59;1.21;90.37
70867;HTU21D;58487;53.474;49.470;2022-11-20T08:51:25;1.22;90.34
70867;HTU21D;58487;53.474;49.470;2022-11-20T08:53:51;1.20;90.46
70867;HTU21D;58487;53.474;49.470;2022-11-20T08:56:18;1.20;90.68
70867;HTU21D;58487;53.474;49.470;2022-11-20T08:58:44;1.24;90.44
70867;HTU21D;58487;53.474;49.470;2022-11-20T09:01:10;1.22;90.69
70867;HTU21D;58487;53.474;49.470;2022-11-20T09:03:36;1.22;90.86
70867;HTU21D;58487;53.474;49.470;2022-11-20T09:06:05;1.25;90.76
70867;HTU21D;58487;53.474;49.470;2022-11-20T09:08:32;1.29;90.48
70867;HTU21D;58487;53.474;49.470;2022-11-20T09:10:58;1.21;90.56
70867;HTU21D;58487;53.474;49.470;2022-11-20T09:13:26;1.23;90.82
70867;HTU21D;58487;53.474;49.470;2022-11-20T09:15:57;1.22;90.60
70867;HTU21D;58487;53.474;49.470;2022-11-20T09:18:24;1.21;90.56
70867;HTU21D;58487;53.474;49.470;2022-11-20T09:20:51;1.27;90.15
70867;HTU21D;58487;53.474;49.470;2022-11-20T09:23:17;1.36;90.04
70867;HTU21D;58487;53.474;49.470;2022-11-20T09:25:44;1.41;89.77
70867;HTU21D;58487;53.474;49.470;2022-11-20T09:28:10;1.48;89.70
70867;HTU21D;58487;53.474;49.470;2022-11-20T09:30:36;1.52;89.46
70867;HTU21D;58487;53.474;49.470;2022-11-20T09:33:04;1.51;88.85
70867;HTU21D;58487;53.474;49.470;2022-11-20T09:35:30;1.48;88.96
70867;HTU21D;58487;53.474;49.470;2022-11-20T09:37:56;1.58;88.85
70867;HTU21D;58487;53.474;49.470;2022-11-20T09:40:28;1.75;89.15
70867;HTU21D;58487;53.474;49.470;2022-11-20T09:48:34;2.07;87.64
70867;HTU21D;58487;53.474;49.470;2022-11-20T09:56:20;2.11;86.86
70867;HTU21D;58487;53.474;49.470;2022-11-20T09:58:52;2.02;87.18
70867;HTU21D;58487;53.474;49.470;2022-11-20T10:01:21;1.96;87.35
70867;HTU21D;58487;53.474;49.470;2022-11-20T10:06:30;1.98;87.18
70867;HTU21D;58487;53.474;49.470;2022-11-20T10:09:25;2.11;86.81
70867;HTU21D;58487;53.474;49.470;2022-11-20T10:12:14;2.09;85.87
70867;HTU21D;58487;53.474;49.470;2022-11-20T10:31:14;1.84;88.06
70867;HTU21D;58487;53.474;49.470;2022-11-20T10:33:45;1.91;87.78
70867;HTU21D;58487;53.474;49.470;2022-11-20T10:36:26;2.03;86.74
70867;HTU21D;58487;53.474;49.470;2022-11-20T10:39:14;1.98;87.37
70867;HTU21D;58487;53.474;49.470;2022-11-20T10:41:43;2.10;87.32
70867;HTU21D;58487;53.474;49.470;2022-11-20T10:44:17;1.95;87.39
70867;HTU21D;58487;53.474;49.470;2022-11-20T10:47:05;2.06;87.14
70867;HTU21D;58487;53.474;49.470;2022-11-20T10:49:33;1.92;87.08
70867;HTU21D;58487;53.474;49.470;2022-11-20T10:53:05;1.85;87.34
70867;HTU21D;58487;53.474;49.470;2022-11-20T10:55:40;1.84;87.25
70867;HTU21D;58487;53.474;49.470;2022-11-20T11:00:40;1.82;87.61
70867;HTU21D;58487;53.474;49.470;2022-11-20T11:03:25;1.79;87.92
70867;HTU21D;58487;53.474;49.470;2022-11-20T11:08:39;1.78;87.57
70867;HTU21D;58487;53.474;49.470;2022-11-20T11:11:25;1.69;88.11
70867;HTU21D;58487;53.474;49.470;2022-11-20T11:13:52;1.62;88.39
70867;HTU21D;58487;53.474;49.470;2022-11-20T11:16:27;1.53;88.75
70867;HTU21D;58487;53.474;49.470;2022-11-20T11:19:11;1.46;88.96
70867;HTU21D;58487;53.474;49.470;2022-11-20T11:21:38;1.43;89.07
70867;HTU21D;58487;53.474;49.470;2022-11-20T11:24:22;1.47;89.25
70867;HTU21D;58487;53.474;49.470;2022-11-20T11:27:01;1.55;88.76
70867;HTU21D;58487;53.474;49.470;2022-11-20T11:29:33;1.43;89.21
70867;HTU21D;58487;53.474;49.470;2022-11-20T11:32:17;1.37;89.54
70867;HTU21D;58487;53.474;49.470;2022-11-20T11:34:43;1.35;89.70
70867;HTU21D;58487;53.474;49.470;2022-11-20T11:37:20;1.31;90.23
70867;HTU21D;58487;53.474;49.470;2022-11-20T11:39:50;1.37;89.76
70867;HTU21D;58487;53.474;49.470;2022-11-20T11:42:17;1.34;89.92
70867;HTU21D;58487;53.474;49.470;2022-11-20T11:44:46;1.32;90.00
70867;HTU21D;58487;53.474;49.470;2022-11-20T12:04:19;1.19;90.61
70867;HTU21D;58487;53.474;49.470;2022-11-20T12:06:50;1.17;90.73
70867;HTU21D;58487;53.474;49.470;2022-11-20T12:09:18;1.17;90.81
70867;HTU21D;58487;53.474;49.470;2022-11-20T12:12:02;1.23;90.42
70867;HTU21D;58487;53.474;49.470;2022-11-20T12:14:33;1.19;90.61
70867;HTU21D;58487;53.474;49.470;2022-11-20T12:17:01;1.19;90.50
70867;HTU21D;58487;53.474;49.470;2022-11-20T12:19:30;1.20;90.15
70867;HTU21D;58487;53.474;49.470;2022-11-20T12:22:15;1.21;90.30
70867;HTU21D;58487;53.474;49.470;2022-11-20T12:25:41;1.23;90.05
70867;HTU21D;58487;53.474;49.470;2022-11-20T12:30:48;1.31;89.72
70867;HTU21D;58487;53.474;49.470;2022-11-20T12:38:45;1.23;90.36
70867;HTU21D;58487;53.474;49.470;2022-11-20T12:41:44;1.25;90.46
70867;HTU21D;58487;53.474;49.470;2022-11-20T12:44:47;1.22;90.44
70867;HTU21D;58487;53.474;49.470;2022-11-20T12:53:30;1.27;90.13
70867;HTU21D;58487;53.474;49.470;2022-11-20T12:59:04;1.32;90.00
70867;HTU21D;58487;53.474;49.470;2022-11-20T13:01:45;1.25;90.23
70867;HTU21D;58487;53.474;49.470;2022-11-20T13:04:34;1.25;90.25
70867;HTU21D;58487;53.474;49.470;2022-11-20T13:07:12;1.33;90.11
70867;HTU21D;58487;53.474;49.470;2022-11-20T13:09:46;1.35;89.95
70867;HTU21D;58487;53.474;49.470;2022-11-20T13:12:38;1.33;89.81
70867;HTU21D;58487;53.474;49.470;2022-11-20T13:18:01;1.32;90.21
70867;HTU21D;58487;53.474;49.470;2022-11-20T13:20:29;1.35;90.04
70867;HTU21D;58487;53.474;49.470;2022-11-20T13:22:56;1.35;89.92
70867;HTU21D;58487;53.474;49.470;2022-11-20T13:27:57;1.28;90.03
70867;HTU21D;58487;53.474;49.470;2022-11-20T13:30:25;1.29;89.97
70867;HTU21D;58487;53.474;49.470;2022-11-20T13:33:07;1.28;89.90
70867;HTU21D;58487;53.474;49.470;2022-11-20T13:35:40;1.29;89.74
70867;HTU21D;58487;53.474;49.470;2022-11-20T13:38:12;1.31;89.82
70867;HTU21D;58487;53.474;49.470;2022-11-20T13:41:00;1.35;89.74
70867;HTU21D;58487;53.474;49.470;2022-11-20T13:43:49;1.36;89.57
70867;HTU21D;58487;53.474;49.470;2022-11-20T13:46:15;1.36;90.02
70867;HTU21D;58487;53.474;49.470;2022-11-20T13:48:43;1.46;89.46
70867;HTU21D;58487;53.474;49.470;2022-11-20T13:51:32;1.51;89.21
70867;HTU21D;58487;53.474;49.470;2022-11-20T13:57:44;1.55;88.85
70867;HTU21D;58487;53.474;49.470;2022-11-20T14:00:22;1.57;88.70
70867;HTU21D;58487;53.474;49.470;2022-11-20T14:03:20;1.60;88.58
70867;HTU21D;58487;53.474;49.470;2022-11-20T14:06:44;1.55;88.56
70867;HTU21D;58487;53.474;49.470;2022-11-20T14:09:24;1.58;88.95
70867;HTU21D;58487;53.474;49.470;2022-11-20T14:11:50;1.53;88.71
70867;HTU21D;58487;53.474;49.470;2022-11-20T14:14:21;1.47;89.12
70867;HTU21D;58487;53.474;49.470;2022-11-20T14:16:48;1.40;89.23
70867;HTU21D;58487;53.474;49.470;2022-11-20T14:21:51;1.36;89.56
70867;HTU21D;58487;53.474;49.470;2022-11-20T14:24:22;1.31;89.93
70867;HTU21D;58487;53.474;49.470;2022-11-20T14:26:50;1.34;90.13
70867;HTU21D;58487;53.474;49.470;2022-11-20T14:29:21;1.38;90.25
70867;HTU21D;58487;53.474;49.470;2022-11-20T14:31:54;1.39;90.15
70867;HTU21D;58487;53.474;49.470;2022-11-20T14:34:27;1.43;89.95
70867;HTU21D;58487;53.474;49.470;2022-11-20T14:37:05;1.46;89.66
70867;HTU21D;58487;53.474;49.470;2022-11-20T14:39:35;1.43;89.79
70867;HTU21D;58487;53.474;49.470;2022-11-20T14:42:03;1.39;89.91
70867;HTU21D;58487;53.474;49.470;2022-11-20T14:44:32;1.37;90.01
70867;HTU21D;58487;53.474;49.470;2022-11-20T14:47:03;1.35;90.15
70867;HTU21D;58487;53.474;49.470;2022-11-20T14:49:31;1.32;90.34
70867;HTU21D;58487;53.474;49.470;2022-11-20T14:52:02;1.38;90.53
70867;HTU21D;58487;53.474;49.470;2022-11-20T14:54:31;1.38;90.72
70867;HTU21D;58487;53.474;49.470;2022-11-20T14:57:03;1.39;90.52
70867;HTU21D;58487;53.474;49.470;2022-11-20T14:59:33;1.42;90.44
70867;HTU21D;58487;53.474;49.470;2022-11-20T15:02:06;1.40;90.41
70867;HTU21D;58487;53.474;49.470;2022-11-20T15:05:05;1.36;90.73
70867;HTU21D;58487;53.474;49.470;2022-11-20T15:07:36;1.37;90.83
70867;HTU21D;58487;53.474;49.470;2022-11-20T15:10:08;1.43;90.60
70867;HTU21D;58487;53.474;49.470;2022-11-20T15:12:46;1.41;90.70
70867;HTU21D;58487;53.474;49.470;2022-11-20T15:15:38;1.49;90.47
70867;HTU21D;58487;53.474;49.470;2022-11-20T15:18:58;1.43;90.58
70867;HTU21D;58487;53.474;49.470;2022-11-20T15:21:14;1.47;90.62
70867;HTU21D;58487;53.474;49.470;2022-11-20T15:23:41;1.48;90.65
70867;HTU21D;58487;53.474;49.470;2022-11-20T15:26:08;1.48;90.46
70867;HTU21D;58487;53.474;49.470;2022-11-20T15:28:46;1.58;90.30
70867;HTU21D;58487;53.474;49.470;2022-11-20T15:31:15;1.63;89.76
70867;HTU21D;58487;53.474;49.470;2022-11-20T15:33:44;1.61;90.02
70867;HTU21D;58487;53.474;49.470;2022-11-20T15:36:10;1.64;90.28
70867;HTU21D;58487;53.474;49.470;2022-11-20T15:38:36;1.69;89.75
70867;HTU21D;58487;53.474;49.470;2022-11-20T15:41:02;1.64;90.04
70867;HTU21D;58487;53.474;49.470;2022-11-20T15:43:28;1.68;89.89
70867;HTU21D;58487;53.474;49.470;2022-11-20T15:46:09;1.77;89.60
70867;HTU21D;58487;53.474;49.470;2022-11-20T15:48:42;1.73;89.44
70867;HTU21D;58487;53.474;49.470;2022-11-20T15:51:19;1.65;90.09
70867;HTU21D;58487;53.474;49.470;2022-11-20T15:53:54;1.65;90.34
70867;HTU21D;58487;53.474;49.470;2022-11-20T15:56:24;1.55;90.73
70867;HTU21D;58487;53.474;49.470;2022-11-20T15:58:53;1.62;90.64
70867;HTU21D;58487;53.474;49.470;2022-11-20T16:01:24;1.60;90.69
70867;HTU21D;58487;53.474;49.470;2022-11-20T16:03:50;1.63;90.33
70867;HTU21D;58487;53.474;49.470;2022-11-20T16:06:19;1.58;90.49
70867;HTU21D;58487;53.474;49.470;2022-11-20T16:08:45;1.61;90.44
70867;HTU21D;58487;53.474;49.470;2022-11-20T16:11:16;1.62;90.69
70867;HTU21D;58487;53.474;49.470;2022-11-20T16:13:42;1.58;90.63
70867;HTU21D;58487;53.474;49.470;2022-11-20T16:16:30;1.63;90.50
70867;HTU21D;58487;53.474;49.470;2022-11-20T16:19:00;1.62;90.58
70867;HTU21D;58487;53.474;49.470;2022-11-20T16:21:27;1.61;90.50
70867;HTU21D;58487;53.474;49.470;2022-11-20T16:24:04;1.55;90.70
70867;HTU21D;58487;53.474;49.470;2022-11-20T16:26:31;1.54;90.78
70867;HTU21D;58487;53.474;49.470;2022-11-20T16:28:59;1.51;90.92
70867;HTU21D;58487;53.474;49.470;2022-11-20T16:31:25;1.61;90.76
70867;HTU21D;58487;53.474;49.470;2022-11-20T16:34:12;1.62;90.27
70867;HTU21D;58487;53.474;49.470;2022-11-20T16:36:42;1.60;90.49
70867;HTU21D;58487;53.474;49.470;2022-11-20T16:39:09;1.60;90.20
70867;HTU21D;58487;53.474;49.470;2022-11-20T16:41:35;1.61;90.15
70867;HTU21D;58487;53.474;49.470;2022-11-20T16:44:08;1.61;89.73
70867;HTU21D;58487;53.474;49.470;2022-11-20T16:46:34;1.66;89.65
70867;HTU21D;58487;53.474;49.470;2022-11-20T16:49:03;1.61;89.70
70867;HTU21D;58487;53.474;49.470;2022-11-20T16:51:31;1.64;89.78
70867;HTU21D;58487;53.474;49.470;2022-11-20T16:54:01;1.61;90.06
70867;HTU21D;58487;53.474;49.470;2022-11-20T16:56:27;1.56;90.16
70867;HTU21D;58487;53.474;49.470;2022-11-20T16:58:57;1.52;90.36
70867;HTU21D;58487;53.474;49.470;2022-11-20T17:01:24;1.56;90.16
70867;HTU21D;58487;53.474;49.470;2022-11-20T17:03:59;1.58;90.29
70867;HTU21D;58487;53.474;49.470;2022-11-20T17:06:31;1.61;90.09
70867;HTU21D;58487;53.474;49.470;2022-11-20T17:08:57;1.58;90.23
70867;HTU21D;58487;53.474;49.470;2022-11-20T17:11:24;1.61;89.69